createdAt,value
2022-08-20T00:00:26.019Z,79.05
2022-08-20T00:01:12.979Z,79.42
2022-08-20T00:01:59.881Z,79.29
2022-08-20T00:02:52.860Z,79.60
2022-08-20T00:03:50.047Z,79.91
2022-08-20T00:04:39.540Z,79.96
2022-08-20T00:05:33.340Z,80.49
2022-08-20T00:06:23.263Z,79.97
2022-08-20T00:07:10.218Z,79.80
2022-08-20T00:07:57.405Z,79.83
2022-08-20T00:08:45.409Z,79.80
2022-08-20T00:09:32.319Z,79.85
2022-08-20T00:10:23.710Z,79.64
2022-08-20T00:11:13.136Z,79.55
2022-08-20T00:12:01.189Z,79.84
2022-08-20T00:12:49.519Z,79.88
2022-08-20T00:13:39.610Z,80.12
2022-08-20T00:14:26.500Z,80.35
2022-08-20T00:15:14.360Z,80.33
2022-08-20T00:16:01.690Z,80.18
2022-08-20T00:16:48.620Z,79.92
2022-08-20T00:17:38.570Z,80.27
2022-08-20T00:18:26.229Z,79.84
2022-08-20T00:19:13.031Z,79.73
2022-08-20T00:19:59.869Z,79.66
2022-08-20T00:20:49.000Z,80.18
2022-08-20T00:21:36.921Z,80.22
2022-08-20T00:22:24.319Z,80.39
2022-08-20T00:23:11.608Z,80.60
2022-08-20T00:23:59.509Z,80.67
2022-08-20T00:24:46.360Z,81.33
2022-08-20T00:25:33.419Z,81.74
2022-08-20T00:26:21.061Z,82.49
2022-08-20T00:27:08.169Z,82.26
2022-08-20T00:27:56.347Z,82.11
2022-08-20T00:28:43.240Z,82.27
2022-08-20T00:29:30.157Z,82.80
2022-08-20T00:30:16.969Z,83.25
2022-08-20T00:31:11.124Z,83.75
2022-08-20T00:31:58.090Z,84.08
2022-08-20T00:32:57.970Z,85.00
2022-08-20T00:33:45.539Z,84.98
2022-08-20T00:34:32.399Z,85.21
2022-08-20T00:35:21.509Z,85.26
2022-08-20T00:36:09.660Z,86.19
2022-08-20T00:36:56.639Z,86.20
2022-08-20T00:37:43.759Z,86.25
2022-08-20T00:38:31.750Z,86.64
2022-08-20T00:39:18.639Z,86.83
2022-08-20T00:40:07.570Z,86.59
2022-08-20T00:41:14.990Z,86.99
2022-08-20T00:42:02.340Z,86.81
2022-08-20T00:42:52.649Z,86.80
2022-08-20T00:43:43.493Z,87.02
2022-08-20T00:44:30.389Z,87.04
2022-08-20T00:45:18.949Z,87.62
2022-08-20T00:46:12.860Z,88.22
2022-08-20T00:47:00.450Z,88.63
2022-08-20T00:47:51.337Z,88.55
2022-08-20T00:48:41.461Z,88.91
2022-08-20T00:49:31.041Z,89.40
2022-08-20T00:50:22.249Z,89.49
2022-08-20T00:51:17.479Z,89.26
2022-08-20T00:52:12.890Z,89.02
2022-08-20T00:53:00.679Z,88.85
2022-08-20T00:53:48.189Z,88.83
2022-08-20T00:54:44.860Z,88.93
2022-08-20T00:55:32.948Z,89.01
2022-08-20T00:56:19.889Z,88.81
2022-08-20T00:57:25.480Z,88.50
2022-08-20T00:58:12.528Z,89.15
2022-08-20T00:59:00.501Z,89.37
2022-08-20T00:59:49.169Z,89.09
2022-08-20T01:00:38.489Z,88.95
2022-08-20T01:01:25.429Z,89.81
2022-08-20T01:02:15.385Z,89.66
2022-08-20T01:03:02.319Z,89.90
2022-08-20T01:03:50.319Z,90.15
2022-08-20T01:04:37.859Z,89.69
2022-08-20T01:05:29.439Z,89.41
2022-08-20T01:06:16.931Z,89.59
2022-08-20T01:07:05.510Z,90.42
2022-08-20T01:07:53.999Z,90.40
2022-08-20T01:08:42.019Z,90.76
2022-08-20T01:09:50.348Z,90.50
2022-08-20T01:10:38.962Z,90.83
2022-08-20T01:11:38.016Z,91.14
2022-08-20T01:12:26.261Z,92.09
2022-08-20T01:13:15.799Z,92.33
2022-08-20T01:14:25.869Z,92.58
2022-08-20T01:15:16.403Z,92.45
2022-08-20T01:16:04.108Z,91.99
2022-08-20T01:16:54.880Z,92.61
2022-08-20T01:17:46.050Z,92.69
2022-08-20T01:18:32.989Z,92.28
2022-08-20T01:19:29.793Z,92.10
2022-08-20T01:20:20.040Z,92.04
2022-08-20T01:21:07.981Z,92.83
2022-08-20T01:21:54.921Z,93.81
2022-08-20T01:23:12.780Z,93.16
2022-08-20T01:24:09.430Z,93.35
2022-08-20T01:25:16.070Z,91.87
2022-08-20T01:26:11.859Z,92.38
2022-08-20T01:27:02.114Z,92.80
2022-08-20T01:27:55.585Z,93.09
2022-08-20T01:28:50.539Z,93.37
2022-08-20T01:29:39.479Z,93.70
2022-08-20T01:30:27.921Z,94.42
2022-08-20T01:31:20.801Z,95.18
2022-08-20T01:32:07.980Z,95.59
2022-08-20T01:32:55.219Z,95.54
2022-08-20T01:33:42.149Z,96.35
2022-08-20T01:34:31.042Z,96.66
2022-08-20T01:35:22.885Z,96.63
2022-08-20T01:36:10.741Z,96.80
2022-08-20T01:36:59.713Z,96.86
2022-08-20T01:37:46.536Z,96.99
2022-08-20T01:38:34.709Z,97.35
2022-08-20T01:39:24.619Z,97.70
2022-08-20T01:40:14.666Z,98.17
2022-08-20T01:41:28.626Z,97.86
2022-08-20T01:42:21.081Z,97.41
2022-08-20T01:43:09.171Z,97.31
2022-08-20T01:43:58.523Z,97.49
2022-08-20T01:44:47.290Z,97.62
2022-08-20T01:45:34.129Z,98.01
2022-08-20T01:46:20.969Z,97.96
2022-08-20T01:47:20.090Z,98.05
2022-08-20T01:48:08.202Z,98.67
2022-08-20T01:48:57.487Z,99.08
2022-08-20T01:49:48.851Z,99.44
2022-08-20T01:50:38.450Z,99.27
2022-08-20T01:51:28.499Z,99.21
2022-08-20T01:52:24.269Z,99.19
2022-08-20T01:53:45.480Z,99.36
2022-08-20T01:54:33.199Z,99.89
2022-08-20T01:55:20.099Z,100.00
2022-08-20T01:56:10.479Z,100.00
2022-08-20T01:57:13.792Z,99.93
2022-08-20T01:58:01.449Z,99.92
2022-08-20T01:58:53.763Z,99.85
2022-08-20T01:59:43.741Z,99.83
2022-08-20T02:00:30.782Z,99.86
2022-08-20T02:01:28.621Z,100.00
2022-08-20T02:02:15.450Z,100.00
2022-08-20T02:03:03.537Z,100.00
2022-08-20T02:03:51.350Z,100.00
2022-08-20T02:04:38.350Z,100.00
2022-08-20T02:05:25.110Z,100.00
2022-08-20T02:06:18.057Z,100.00
2022-08-20T02:07:07.026Z,100.00
2022-08-20T02:07:53.936Z,100.00
2022-08-20T02:08:40.800Z,100.00
2022-08-20T02:09:34.039Z,100.00
2022-08-20T02:10:21.100Z,100.00
2022-08-20T02:11:08.840Z,100.00
2022-08-20T02:11:57.711Z,100.00
2022-08-20T02:12:44.910Z,100.00
2022-08-20T02:13:32.879Z,100.00
2022-08-20T02:14:20.471Z,100.00
2022-08-20T02:15:11.106Z,100.00
2022-08-20T02:15:58.080Z,100.00
2022-08-20T02:16:54.909Z,100.00
2022-08-20T02:17:42.739Z,100.00
2022-08-20T02:18:29.619Z,100.00
2022-08-20T02:19:30.468Z,100.00
2022-08-20T02:20:21.239Z,100.00
2022-08-20T02:21:08.049Z,100.00
2022-08-20T02:21:57.379Z,100.00
2022-08-20T02:22:50.193Z,100.00
2022-08-20T02:23:37.379Z,100.00
2022-08-20T02:24:24.300Z,100.00
2022-08-20T02:25:12.479Z,100.00
2022-08-20T02:25:59.541Z,100.00
2022-08-20T02:26:46.494Z,100.00
2022-08-20T02:27:33.401Z,100.00
2022-08-20T02:28:20.891Z,100.00
2022-08-20T02:29:09.759Z,100.00
2022-08-20T02:29:56.759Z,100.00
2022-08-20T02:30:47.160Z,100.00
2022-08-20T02:31:35.145Z,100.00
2022-08-20T02:32:24.435Z,100.00
2022-08-20T02:33:24.426Z,100.00
2022-08-20T02:34:18.531Z,100.00
2022-08-20T02:35:11.243Z,100.00
2022-08-20T02:35:58.180Z,100.00
2022-08-20T02:36:46.272Z,100.00
2022-08-20T02:37:33.300Z,100.00
2022-08-20T02:38:20.119Z,100.00
2022-08-20T02:39:09.000Z,100.00
2022-08-20T02:39:55.937Z,100.00
2022-08-20T02:40:44.439Z,100.00
2022-08-20T02:41:31.309Z,100.00
2022-08-20T02:42:18.280Z,100.00
2022-08-20T02:43:05.598Z,100.00
2022-08-20T02:43:52.419Z,100.00
2022-08-20T02:44:39.929Z,100.00
2022-08-20T02:45:27.670Z,100.00
2022-08-20T02:46:15.819Z,100.00
2022-08-20T02:47:02.819Z,100.00
2022-08-20T02:47:52.658Z,100.00
2022-08-20T02:48:40.599Z,100.00
2022-08-20T02:49:27.829Z,100.00
2022-08-20T02:50:17.819Z,100.00
2022-08-20T02:51:06.629Z,100.00
2022-08-20T02:51:53.520Z,100.00
2022-08-20T02:52:41.209Z,100.00
2022-08-20T02:53:41.902Z,100.00
2022-08-20T02:54:29.448Z,100.00
2022-08-20T02:55:23.076Z,100.00
2022-08-20T02:56:14.049Z,100.00
2022-08-20T02:57:01.728Z,100.00
2022-08-20T02:57:48.617Z,100.00
2022-08-20T02:58:39.070Z,100.00
2022-08-20T02:59:25.921Z,100.00
2022-08-20T03:00:18.871Z,100.00
2022-08-20T03:01:07.672Z,100.00
2022-08-20T03:01:59.206Z,100.00
2022-08-20T03:02:48.380Z,100.00
2022-08-20T03:03:35.163Z,100.00
2022-08-20T03:04:22.029Z,100.00
2022-08-20T03:05:13.389Z,100.00
2022-08-20T03:06:01.351Z,100.00
2022-08-20T03:06:48.149Z,100.00
2022-08-20T03:07:45.600Z,100.00
2022-08-20T03:08:32.420Z,100.00
2022-08-20T03:09:19.230Z,100.00
2022-08-20T03:10:06.540Z,100.00
2022-08-20T03:10:53.529Z,100.00
2022-08-20T03:11:40.389Z,100.00
2022-08-20T03:12:27.240Z,100.00
2022-08-20T03:13:15.519Z,100.00
2022-08-20T03:14:02.388Z,100.00
2022-08-20T03:14:49.319Z,100.00
2022-08-20T03:15:36.121Z,100.00
2022-08-20T03:16:22.970Z,100.00
2022-08-20T03:17:09.789Z,100.00
2022-08-20T03:17:57.045Z,100.00
2022-08-20T03:18:46.649Z,100.00
2022-08-20T03:19:33.812Z,100.00
2022-08-20T03:20:23.772Z,100.00
2022-08-20T03:21:14.750Z,100.00
2022-08-20T03:22:02.419Z,100.00
2022-08-20T03:22:51.959Z,100.00
2022-08-20T03:23:40.451Z,100.00
2022-08-20T03:24:27.370Z,100.00
2022-08-20T03:25:14.269Z,100.00
2022-08-20T03:26:01.362Z,100.00
2022-08-20T03:26:48.180Z,100.00
2022-08-20T03:27:36.471Z,100.00
2022-08-20T03:28:23.760Z,100.00
2022-08-20T03:29:10.909Z,100.00
2022-08-20T03:29:57.711Z,100.00
2022-08-20T03:30:44.819Z,100.00
2022-08-20T03:31:31.792Z,100.00
2022-08-20T03:32:18.731Z,100.00
2022-08-20T03:33:05.782Z,100.00
2022-08-20T03:33:53.722Z,100.00
2022-08-20T03:34:40.661Z,100.00
2022-08-20T03:35:29.740Z,100.00
2022-08-20T03:36:19.207Z,100.00
2022-08-20T03:37:10.220Z,100.00
2022-08-20T03:37:57.569Z,100.00
2022-08-20T03:38:44.570Z,100.00
2022-08-20T03:39:31.418Z,100.00
2022-08-20T03:40:32.799Z,100.00
2022-08-20T03:41:19.810Z,100.00
2022-08-20T03:42:07.240Z,100.00
2022-08-20T03:42:54.289Z,100.00
2022-08-20T03:43:41.959Z,100.00
2022-08-20T03:44:28.860Z,100.00
2022-08-20T03:45:20.259Z,100.00
2022-08-20T03:46:22.288Z,100.00
2022-08-20T03:47:10.171Z,100.00
2022-08-20T03:47:58.195Z,100.00
2022-08-20T03:48:45.300Z,100.00
2022-08-20T03:49:32.401Z,100.00
2022-08-20T03:50:24.629Z,100.00
2022-08-20T03:51:11.429Z,100.00
2022-08-20T03:51:58.683Z,100.00
2022-08-20T03:52:45.470Z,100.00
2022-08-20T03:53:32.259Z,100.00
2022-08-20T03:54:19.180Z,100.00
2022-08-20T03:55:07.770Z,100.00
2022-08-20T03:55:55.769Z,100.00
2022-08-20T03:56:44.950Z,100.00
2022-08-20T03:57:31.839Z,100.00
2022-08-20T03:58:19.621Z,100.00
2022-08-20T03:59:06.519Z,100.00
2022-08-20T03:59:54.843Z,100.00
2022-08-20T04:00:50.482Z,100.00
2022-08-20T04:01:46.359Z,100.00
2022-08-20T04:02:34.540Z,100.00
2022-08-20T04:03:42.289Z,100.00
2022-08-20T04:04:29.100Z,100.00
2022-08-20T04:05:16.039Z,100.00
2022-08-20T04:06:03.908Z,100.00
2022-08-20T04:06:50.720Z,100.00
2022-08-20T04:07:38.079Z,100.00
2022-08-20T04:08:29.739Z,100.00
2022-08-20T04:09:16.759Z,100.00
2022-08-20T04:10:06.902Z,100.00
2022-08-20T04:10:57.710Z,100.00
2022-08-20T04:11:44.740Z,100.00
2022-08-20T04:12:31.620Z,100.00
2022-08-20T04:13:20.999Z,100.00
2022-08-20T04:14:11.541Z,100.00
2022-08-20T04:15:02.797Z,100.00
2022-08-20T04:15:53.641Z,100.00
2022-08-20T04:16:44.029Z,100.00
2022-08-20T04:17:33.672Z,100.00
2022-08-20T04:18:23.229Z,100.00
2022-08-20T04:19:10.070Z,100.00
2022-08-20T04:19:56.820Z,100.00
2022-08-20T04:20:44.010Z,100.00
2022-08-20T04:21:35.318Z,100.00
2022-08-20T04:22:22.720Z,100.00
2022-08-20T04:23:10.101Z,100.00
2022-08-20T04:23:56.920Z,100.00
2022-08-20T04:24:43.979Z,100.00
2022-08-20T04:25:35.906Z,100.00
2022-08-20T04:26:23.341Z,100.00
2022-08-20T04:27:11.119Z,100.00
2022-08-20T04:27:59.259Z,100.00
2022-08-20T04:28:46.102Z,100.00
2022-08-20T04:29:35.370Z,100.00
2022-08-20T04:30:23.482Z,100.00
2022-08-20T04:31:13.039Z,100.00
2022-08-20T04:32:02.785Z,100.00
2022-08-20T04:32:53.439Z,100.00
2022-08-20T04:33:43.241Z,100.00
2022-08-20T04:34:30.220Z,100.00
2022-08-20T04:35:20.221Z,100.00
2022-08-20T04:36:07.750Z,100.00
2022-08-20T04:36:54.679Z,100.00
2022-08-20T04:37:42.340Z,100.00
2022-08-20T04:38:50.009Z,100.00
2022-08-20T04:39:37.457Z,100.00
2022-08-20T04:40:42.879Z,100.00
2022-08-20T04:41:29.782Z,100.00
2022-08-20T04:42:16.553Z,100.00
2022-08-20T04:43:05.390Z,100.00
2022-08-20T04:43:54.373Z,100.00
2022-08-20T04:44:41.489Z,100.00
2022-08-20T04:45:28.409Z,100.00
2022-08-20T04:46:15.629Z,100.00
2022-08-20T04:47:02.450Z,100.00
2022-08-20T04:47:50.297Z,100.00
2022-08-20T04:48:39.420Z,100.00
2022-08-20T04:49:28.039Z,100.00
2022-08-20T04:50:15.080Z,100.00
2022-08-20T04:51:03.838Z,100.00
2022-08-20T04:51:51.130Z,100.00
2022-08-20T04:52:38.160Z,100.00
2022-08-20T04:53:27.291Z,100.00
2022-08-20T04:54:14.704Z,100.00
2022-08-20T04:55:02.251Z,100.00
2022-08-20T04:55:50.360Z,100.00
2022-08-20T04:56:40.189Z,100.00
2022-08-20T04:57:26.999Z,100.00
2022-08-20T04:58:21.703Z,100.00
2022-08-20T04:59:09.221Z,100.00
2022-08-20T04:59:59.373Z,100.00
2022-08-20T05:00:49.465Z,100.00
2022-08-20T05:01:36.405Z,100.00
2022-08-20T05:02:23.320Z,100.00
2022-08-20T05:03:10.180Z,100.00
2022-08-20T05:03:58.019Z,100.00
2022-08-20T05:04:45.468Z,100.00
2022-08-20T05:05:32.361Z,100.00
2022-08-20T05:06:19.981Z,100.00
2022-08-20T05:07:06.799Z,100.00
2022-08-20T05:07:53.890Z,100.00
2022-08-20T05:08:40.820Z,99.97
2022-08-20T05:09:27.700Z,99.76
2022-08-20T05:10:16.701Z,99.31
2022-08-20T05:11:32.633Z,98.84
2022-08-20T05:12:10.560Z,98.81
2022-08-20T05:12:57.630Z,98.51
2022-08-20T05:13:44.519Z,98.01
2022-08-20T05:14:31.500Z,97.39
2022-08-20T05:15:18.399Z,97.07
2022-08-20T05:16:06.723Z,97.14
2022-08-20T05:16:56.969Z,97.11
2022-08-20T05:17:44.652Z,97.21
2022-08-20T05:18:35.311Z,96.56
2022-08-20T05:19:22.530Z,96.21
2022-08-20T05:20:13.369Z,96.35
2022-08-20T05:21:06.050Z,96.53
2022-08-20T05:21:53.911Z,96.85
2022-08-20T05:22:40.810Z,97.45
2022-08-20T05:23:27.640Z,97.34
2022-08-20T05:24:14.785Z,96.61
2022-08-20T05:25:02.129Z,96.36
2022-08-20T05:25:52.692Z,95.91
2022-08-20T05:26:40.248Z,95.35
2022-08-20T05:27:27.319Z,95.48
2022-08-20T05:28:20.139Z,95.33
2022-08-20T05:29:07.682Z,94.40
2022-08-20T05:29:56.200Z,94.00
2022-08-20T05:30:45.569Z,94.13
2022-08-20T05:31:35.099Z,93.42
2022-08-20T05:32:22.670Z,92.22
2022-08-20T05:33:10.359Z,91.48
2022-08-20T05:33:58.084Z,90.78
2022-08-20T05:34:44.831Z,90.46
2022-08-20T05:35:34.971Z,90.52
2022-08-20T05:36:21.853Z,90.27
2022-08-20T05:37:10.347Z,90.23
2022-08-20T05:37:58.829Z,89.46
2022-08-20T05:38:49.668Z,88.60
2022-08-20T05:39:37.605Z,88.55
2022-08-20T05:40:25.144Z,88.96
2022-08-20T05:41:12.020Z,88.88
2022-08-20T05:42:15.250Z,89.11
2022-08-20T05:43:04.781Z,88.11
2022-08-20T05:43:51.667Z,87.63
2022-08-20T05:44:38.860Z,87.88
2022-08-20T05:45:25.685Z,88.10
2022-08-20T05:46:13.474Z,88.34
2022-08-20T05:47:00.330Z,89.09
2022-08-20T05:47:56.402Z,89.47
2022-08-20T05:48:43.529Z,89.50
2022-08-20T05:49:30.940Z,89.77
2022-08-20T05:50:23.252Z,89.94
2022-08-20T05:51:15.017Z,89.88
2022-08-20T05:52:02.071Z,89.91
2022-08-20T05:52:48.809Z,89.25
2022-08-20T05:53:35.681Z,87.93
2022-08-20T05:54:24.133Z,87.68
2022-08-20T05:55:15.749Z,88.30
2022-08-20T05:56:02.741Z,88.45
2022-08-20T05:56:50.430Z,87.87
2022-08-20T05:57:37.374Z,87.73
2022-08-20T05:58:27.101Z,87.76
2022-08-20T05:59:14.357Z,88.04
2022-08-20T06:00:02.950Z,87.82
2022-08-20T06:00:50.646Z,88.21
2022-08-20T06:01:39.460Z,87.71
2022-08-20T06:02:45.339Z,86.89
2022-08-20T06:03:51.000Z,86.20
2022-08-20T06:04:38.220Z,85.96
2022-08-20T06:05:25.960Z,85.60
2022-08-20T06:06:18.027Z,85.77
2022-08-20T06:07:20.130Z,86.13
2022-08-20T06:08:09.289Z,85.43
2022-08-20T06:08:56.081Z,85.10
2022-08-20T06:09:44.516Z,85.59
2022-08-20T06:10:31.501Z,85.59
2022-08-20T06:11:19.120Z,85.84
2022-08-20T06:12:09.011Z,84.64
2022-08-20T06:12:55.910Z,84.84
2022-08-20T06:13:42.808Z,85.38
2022-08-20T06:14:29.761Z,85.88
2022-08-20T06:15:16.757Z,86.17
2022-08-20T06:16:06.836Z,86.39
2022-08-20T06:16:58.045Z,86.02
2022-08-20T06:17:46.179Z,84.94
2022-08-20T06:18:45.139Z,85.90
2022-08-20T06:19:33.191Z,86.09
2022-08-20T06:20:20.237Z,86.40
2022-08-20T06:21:07.347Z,85.69
2022-08-20T06:21:56.619Z,84.72
2022-08-20T06:22:43.700Z,85.06
2022-08-20T06:23:57.971Z,85.67
2022-08-20T06:24:37.450Z,84.31
2022-08-20T06:25:24.351Z,84.47
2022-08-20T06:26:11.530Z,84.08
2022-08-20T06:27:03.381Z,82.22
2022-08-20T06:27:50.380Z,80.83
2022-08-20T06:28:37.226Z,80.98
2022-08-20T06:29:24.120Z,82.14
2022-08-20T06:30:13.753Z,82.93
2022-08-20T06:31:00.625Z,83.21
2022-08-20T06:31:47.510Z,82.37
2022-08-20T06:32:34.300Z,82.57
2022-08-20T06:33:21.151Z,83.38
2022-08-20T06:34:07.870Z,83.75
2022-08-20T06:34:54.711Z,84.72
2022-08-20T06:35:44.490Z,85.24
2022-08-20T06:36:31.440Z,86.02
2022-08-20T06:37:27.410Z,87.41
2022-08-20T06:38:18.429Z,87.62
2022-08-20T06:39:05.180Z,87.38
2022-08-20T06:39:52.768Z,88.29
2022-08-20T06:40:40.899Z,89.13
2022-08-20T06:41:36.200Z,88.62
2022-08-20T06:42:24.100Z,88.60
2022-08-20T06:43:12.172Z,88.56
2022-08-20T06:44:00.681Z,88.65
2022-08-20T06:44:50.195Z,89.16
2022-08-20T06:45:39.129Z,88.93
2022-08-20T06:46:25.949Z,88.96
2022-08-20T06:47:15.170Z,89.19
2022-08-20T06:48:07.320Z,89.49
2022-08-20T06:48:54.202Z,89.50
2022-08-20T06:49:41.059Z,89.54
2022-08-20T06:50:33.639Z,89.51
2022-08-20T06:51:20.520Z,89.88
2022-08-20T06:52:07.269Z,89.89
2022-08-20T06:52:59.453Z,90.01
2022-08-20T06:53:46.530Z,90.52
2022-08-20T06:54:34.549Z,90.85
2022-08-20T06:55:22.353Z,90.67
2022-08-20T06:56:09.226Z,91.09
2022-08-20T06:56:56.070Z,91.03
2022-08-20T06:57:43.679Z,91.02
2022-08-20T06:58:37.207Z,91.18
2022-08-20T06:59:25.434Z,89.77
2022-08-20T07:00:18.310Z,89.70
2022-08-20T07:01:10.284Z,89.87
2022-08-20T07:01:57.740Z,89.67
2022-08-20T07:02:44.570Z,88.22
2022-08-20T07:03:31.419Z,87.15
2022-08-20T07:04:18.309Z,88.14
2022-08-20T07:05:05.589Z,88.97
2022-08-20T07:05:52.695Z,88.85
2022-08-20T07:06:39.512Z,88.45
2022-08-20T07:07:26.329Z,87.53
2022-08-20T07:08:18.800Z,86.48
2022-08-20T07:09:05.480Z,86.89
2022-08-20T07:09:59.840Z,87.52
2022-08-20T07:10:46.649Z,86.67
2022-08-20T07:11:36.067Z,86.17
2022-08-20T07:12:22.913Z,85.51
2022-08-20T07:13:12.250Z,84.38
2022-08-20T07:13:59.605Z,84.39
2022-08-20T07:14:46.620Z,84.17
2022-08-20T07:15:33.870Z,84.21
2022-08-20T07:16:20.692Z,83.28
2022-08-20T07:17:09.678Z,85.04
2022-08-20T07:18:01.979Z,85.93
2022-08-20T07:18:48.809Z,82.26
2022-08-20T07:19:36.850Z,83.71
2022-08-20T07:20:24.149Z,82.23
2022-08-20T07:21:12.339Z,80.64
2022-08-20T07:21:59.510Z,80.79
2022-08-20T07:22:46.647Z,81.76
2022-08-20T07:23:33.579Z,82.37
2022-08-20T07:24:20.473Z,81.42
2022-08-20T07:25:10.821Z,81.89
2022-08-20T07:25:57.669Z,80.96
2022-08-20T07:26:44.521Z,78.70
2022-08-20T07:27:31.780Z,79.22
2022-08-20T07:28:21.267Z,79.91
2022-08-20T07:29:08.080Z,79.74
2022-08-20T07:30:15.225Z,81.30
2022-08-20T07:31:20.920Z,82.33
2022-08-20T07:32:26.591Z,82.30
2022-08-20T07:33:16.151Z,81.83
2022-08-20T07:34:05.600Z,81.33
2022-08-20T07:34:53.970Z,80.82
2022-08-20T07:35:42.110Z,80.60
2022-08-20T07:36:29.563Z,82.18
2022-08-20T07:37:16.460Z,81.03
2022-08-20T07:38:03.280Z,81.12
2022-08-20T07:38:51.126Z,81.90
2022-08-20T07:39:37.970Z,81.94
2022-08-20T07:40:29.219Z,82.19
2022-08-20T07:41:16.259Z,82.09
2022-08-20T07:42:07.389Z,82.96
2022-08-20T07:42:58.769Z,83.27
2022-08-20T07:43:46.332Z,83.23
2022-08-20T07:44:33.210Z,84.13
2022-08-20T07:45:20.871Z,82.93
2022-08-20T07:46:09.161Z,82.39
2022-08-20T07:46:58.366Z,81.71
2022-08-20T07:47:46.550Z,81.41
2022-08-20T07:48:34.131Z,80.79
2022-08-20T07:49:21.309Z,81.31
2022-08-20T07:50:10.320Z,82.54
2022-08-20T07:50:59.084Z,81.81
2022-08-20T07:51:46.009Z,82.75
2022-08-20T07:52:35.475Z,81.21
2022-08-20T07:53:22.694Z,81.24
2022-08-20T07:54:09.558Z,81.15
2022-08-20T07:54:56.359Z,80.67
2022-08-20T07:55:57.164Z,80.91
2022-08-20T07:56:46.222Z,81.22
2022-08-20T07:57:39.336Z,82.13
2022-08-20T07:58:27.646Z,82.35
2022-08-20T07:59:20.878Z,82.58
2022-08-20T08:00:09.990Z,81.40
2022-08-20T08:00:57.034Z,81.55
2022-08-20T08:01:45.766Z,81.68
2022-08-20T08:02:32.719Z,82.90
2022-08-20T08:03:19.882Z,83.35
2022-08-20T08:04:26.599Z,83.77
2022-08-20T08:05:13.880Z,82.66
2022-08-20T08:06:01.129Z,82.92
2022-08-20T08:06:48.179Z,83.65
2022-08-20T08:07:35.787Z,83.41
2022-08-20T08:08:28.429Z,82.97
2022-08-20T08:09:15.499Z,81.84
2022-08-20T08:10:04.810Z,81.62
2022-08-20T08:10:56.528Z,82.34
2022-08-20T08:11:50.473Z,81.81
2022-08-20T08:12:41.180Z,81.96
2022-08-20T08:13:35.869Z,82.25
2022-08-20T08:14:27.246Z,81.36
2022-08-20T08:15:17.699Z,81.81
2022-08-20T08:16:06.982Z,81.79
2022-08-20T08:16:57.626Z,82.37
2022-08-20T08:17:46.932Z,82.63
2022-08-20T08:18:42.528Z,82.70
2022-08-20T08:19:38.120Z,83.47
2022-08-20T08:20:25.352Z,83.74
2022-08-20T08:21:13.297Z,85.65
2022-08-20T08:22:00.380Z,85.66
2022-08-20T08:22:47.588Z,85.59
2022-08-20T08:23:35.390Z,84.80
2022-08-20T08:24:26.538Z,84.15
2022-08-20T08:25:17.219Z,84.03
2022-08-20T08:26:04.365Z,83.52
2022-08-20T08:26:52.778Z,83.98
2022-08-20T08:27:40.631Z,84.48
2022-08-20T08:28:30.749Z,84.84
2022-08-20T08:29:17.932Z,85.76
2022-08-20T08:30:07.789Z,86.61
2022-08-20T08:30:54.791Z,86.82
2022-08-20T08:31:42.883Z,86.51
2022-08-20T08:32:32.061Z,86.09
2022-08-20T08:33:33.190Z,86.31
2022-08-20T08:34:20.371Z,86.63
2022-08-20T08:35:09.068Z,86.85
2022-08-20T08:35:57.058Z,87.06
2022-08-20T08:36:44.827Z,87.30
2022-08-20T08:37:32.411Z,87.86
2022-08-20T08:38:19.269Z,85.35
2022-08-20T08:39:06.270Z,84.66
2022-08-20T08:39:53.313Z,85.20
2022-08-20T08:40:40.700Z,86.79
2022-08-20T08:41:34.582Z,87.88
2022-08-20T08:42:43.365Z,88.02
2022-08-20T08:43:31.788Z,87.46
2022-08-20T08:44:23.581Z,87.17
2022-08-20T08:45:13.461Z,87.77
2022-08-20T08:46:05.960Z,87.95
2022-08-20T08:47:12.669Z,88.16
2022-08-20T08:47:59.610Z,87.82
2022-08-20T08:48:49.208Z,87.53
2022-08-20T08:49:37.972Z,86.51
2022-08-20T08:50:53.529Z,86.29
2022-08-20T08:51:49.326Z,83.94
2022-08-20T08:52:40.469Z,83.77
2022-08-20T08:53:33.522Z,84.55
2022-08-20T08:54:24.479Z,84.13
2022-08-20T08:55:16.210Z,84.85
2022-08-20T08:56:04.972Z,85.37
2022-08-20T08:56:53.091Z,85.31
2022-08-20T08:57:41.551Z,86.43
2022-08-20T08:58:28.602Z,84.32
2022-08-20T08:59:15.701Z,85.34
2022-08-20T09:00:10.447Z,87.09
2022-08-20T09:01:02.120Z,87.37
2022-08-20T09:01:58.239Z,87.08
2022-08-20T09:03:01.877Z,86.06
2022-08-20T09:03:51.957Z,85.73
2022-08-20T09:04:40.539Z,86.42
2022-08-20T09:05:38.490Z,86.32
2022-08-20T09:06:26.690Z,86.20
2022-08-20T09:07:16.537Z,85.72
2022-08-20T09:08:04.502Z,85.88
2022-08-20T09:09:27.178Z,86.16
2022-08-20T09:10:14.441Z,85.96
2022-08-20T09:11:05.292Z,83.97
2022-08-20T09:11:55.313Z,80.39
2022-08-20T09:12:47.115Z,81.74
2022-08-20T09:13:35.293Z,82.09
2022-08-20T09:14:25.149Z,82.24
2022-08-20T09:15:12.732Z,81.84
2022-08-20T09:15:59.982Z,82.00
2022-08-20T09:16:52.685Z,82.74
2022-08-20T09:17:40.040Z,81.63
2022-08-20T09:18:26.938Z,80.18
2022-08-20T09:19:13.871Z,80.30
2022-08-20T09:20:00.922Z,80.88
2022-08-20T09:20:47.739Z,81.11
2022-08-20T09:21:34.802Z,77.37
2022-08-20T09:22:23.509Z,76.86
2022-08-20T09:23:10.350Z,78.06
2022-08-20T09:23:57.328Z,79.62
2022-08-20T09:24:44.953Z,77.32
2022-08-20T09:25:32.140Z,76.41
2022-08-20T09:26:19.060Z,76.25
2022-08-20T09:27:06.106Z,74.70
2022-08-20T09:27:53.050Z,73.61
2022-08-20T09:28:39.976Z,73.48
2022-08-20T09:29:26.834Z,71.89
2022-08-20T09:30:15.060Z,70.13
2022-08-20T09:31:02.530Z,70.90
2022-08-20T09:31:49.290Z,70.21
2022-08-20T09:32:36.731Z,69.88
2022-08-20T09:33:23.770Z,70.40
2022-08-20T09:34:10.619Z,70.15
2022-08-20T09:34:59.156Z,70.16
2022-08-20T09:35:46.913Z,69.11
2022-08-20T09:36:33.740Z,70.63
2022-08-20T09:37:20.609Z,70.80
2022-08-20T09:38:08.150Z,71.76
2022-08-20T09:38:55.041Z,65.67
2022-08-20T09:39:42.086Z,66.66
2022-08-20T09:40:29.023Z,66.49
2022-08-20T09:41:15.961Z,66.66
2022-08-20T09:42:15.871Z,66.57
2022-08-20T09:43:05.823Z,66.04
2022-08-20T09:43:52.900Z,65.43
2022-08-20T09:44:40.345Z,64.93
2022-08-20T09:45:27.339Z,65.72
2022-08-20T09:46:14.273Z,67.06
2022-08-20T09:47:01.161Z,66.37
2022-08-20T09:47:55.147Z,64.03
2022-08-20T09:48:43.948Z,64.86
2022-08-20T09:49:31.194Z,63.82
2022-08-20T09:50:18.388Z,64.18
2022-08-20T09:51:05.602Z,65.47
2022-08-20T09:51:52.401Z,66.10
2022-08-20T09:52:45.149Z,67.06
2022-08-20T09:53:32.121Z,66.46
2022-08-20T09:54:20.517Z,66.41
2022-08-20T09:55:30.684Z,65.49
2022-08-20T09:56:18.041Z,67.63
2022-08-20T09:57:06.711Z,66.89
2022-08-20T09:57:53.764Z,65.20
2022-08-20T09:58:52.052Z,65.45
2022-08-20T09:59:39.221Z,66.65
2022-08-20T10:00:26.308Z,67.19
2022-08-20T10:01:15.464Z,67.38
2022-08-20T10:02:02.769Z,66.09
2022-08-20T10:02:49.679Z,65.88
2022-08-20T10:03:36.672Z,64.56
2022-08-20T10:04:28.951Z,65.53
2022-08-20T10:05:15.989Z,65.05
2022-08-20T10:06:03.048Z,64.25
2022-08-20T10:06:49.946Z,64.56
2022-08-20T10:07:38.640Z,65.49
2022-08-20T10:08:26.120Z,63.79
2022-08-20T10:09:15.741Z,64.13
2022-08-20T10:10:02.946Z,63.89
2022-08-20T10:10:49.823Z,63.78
2022-08-20T10:11:36.789Z,64.36
2022-08-20T10:12:23.630Z,65.51
2022-08-20T10:13:13.310Z,66.73
2022-08-20T10:14:02.648Z,64.80
2022-08-20T10:14:50.059Z,64.81
2022-08-20T10:15:37.093Z,64.23
2022-08-20T10:16:24.398Z,64.79
2022-08-20T10:17:11.398Z,63.77
2022-08-20T10:17:58.735Z,64.64
2022-08-20T10:18:45.819Z,65.01
2022-08-20T10:19:32.790Z,63.78
2022-08-20T10:20:20.199Z,63.82
2022-08-20T10:21:13.444Z,64.90
2022-08-20T10:22:00.590Z,65.51
2022-08-20T10:22:47.560Z,65.10
2022-08-20T10:23:34.420Z,65.40
2022-08-20T10:24:21.850Z,65.65
2022-08-20T10:25:09.432Z,64.99
2022-08-20T10:25:56.258Z,63.91
2022-08-20T10:26:43.135Z,63.52
2022-08-20T10:27:30.250Z,63.92
2022-08-20T10:28:17.070Z,65.10
2022-08-20T10:29:03.979Z,65.70
2022-08-20T10:29:50.964Z,65.80
2022-08-20T10:30:38.019Z,64.86
2022-08-20T10:31:24.924Z,63.38